createdAt,value
2018-10-15T00:00:00.091Z,0.00
2018-10-15T00:01:00.167Z,0.00
2018-10-15T00:02:00.315Z,0.00
2018-10-15T00:03:00.467Z,0.00
2018-10-15T00:04:00.613Z,0.00
2018-10-15T00:05:00.771Z,0.00
2018-10-15T00:06:00.919Z,0.00
2018-10-15T00:07:01.068Z,0.00
2018-10-15T00:08:01.217Z,0.00
2018-10-15T00:09:01.366Z,0.00
2018-10-15T00:10:01.525Z,0.00
2018-10-15T00:11:01.668Z,0.00
2018-10-15T00:12:01.818Z,0.00
2018-10-15T00:13:01.967Z,0.00
2018-10-15T00:14:02.119Z,0.00
2018-10-15T00:15:02.267Z,0.00
2018-10-15T00:16:02.413Z,0.00
2018-10-15T00:17:02.561Z,0.00
2018-10-15T00:18:02.709Z,0.00
2018-10-15T00:19:02.858Z,0.00
2018-10-15T00:20:03.009Z,0.00
2018-10-15T00:21:03.161Z,0.00
2018-10-15T00:22:03.311Z,0.00
2018-10-15T00:23:03.459Z,0.00
2018-10-15T00:24:03.613Z,0.00
2018-10-15T00:25:03.758Z,0.00
2018-10-15T00:26:03.908Z,0.00
2018-10-15T00:27:04.058Z,0.00
2018-10-15T00:28:04.207Z,0.00
2018-10-15T00:29:04.356Z,0.00
2018-10-15T00:30:04.505Z,0.00
2018-10-15T00:31:04.658Z,0.00
2018-10-15T00:32:04.806Z,0.00
2018-10-15T00:33:04.956Z,0.00
2018-10-15T00:34:05.105Z,0.00
2018-10-15T00:35:05.256Z,0.00
2018-10-15T00:36:05.402Z,0.00
2018-10-15T00:37:05.556Z,0.00
2018-10-15T00:38:05.704Z,0.00
2018-10-15T00:39:05.851Z,0.00
2018-10-15T00:40:06.000Z,0.00
2018-10-15T00:41:06.149Z,0.00
2018-10-15T00:42:06.300Z,0.00
2018-10-15T00:43:06.449Z,0.00
2018-10-15T00:44:06.602Z,0.00
2018-10-15T00:45:06.749Z,0.00
2018-10-15T00:46:06.891Z,0.00
2018-10-15T00:47:07.047Z,0.00
2018-10-15T00:48:07.199Z,0.00
2018-10-15T00:49:07.344Z,0.00
2018-10-15T00:50:07.495Z,0.00
2018-10-15T00:51:07.647Z,0.00
2018-10-15T00:52:07.794Z,0.00
2018-10-15T00:53:07.953Z,0.00
2018-10-15T00:54:08.098Z,0.00
2018-10-15T00:55:08.243Z,0.00
2018-10-15T00:56:08.391Z,0.00
2018-10-15T00:57:08.541Z,0.00
2018-10-15T00:58:08.691Z,0.00
2018-10-15T00:59:08.841Z,0.00
2018-10-15T01:00:08.993Z,0.00
2018-10-15T01:01:09.144Z,0.00
2018-10-15T01:02:09.298Z,0.00
2018-10-15T01:03:09.444Z,0.00
2018-10-15T01:04:09.591Z,0.00
2018-10-15T01:05:09.738Z,0.00
2018-10-15T01:06:09.889Z,0.00
2018-10-15T01:07:10.037Z,0.00
2018-10-15T01:08:10.188Z,0.00
2018-10-15T01:09:10.335Z,0.00
2018-10-15T01:10:10.483Z,0.00
2018-10-15T01:11:10.637Z,0.00
2018-10-15T01:12:10.784Z,0.00
2018-10-15T01:13:10.933Z,0.00
2018-10-15T01:14:11.082Z,0.00
2018-10-15T01:15:11.231Z,0.00
2018-10-15T01:16:11.382Z,0.00
2018-10-15T01:17:11.532Z,0.00
2018-10-15T01:18:11.680Z,0.00
2018-10-15T01:19:11.863Z,0.00
2018-10-15T01:20:11.978Z,0.00
2018-10-15T01:21:12.126Z,0.00
2018-10-15T01:22:12.281Z,0.00
2018-10-15T01:23:12.431Z,0.00
2018-10-15T01:24:12.578Z,0.00
2018-10-15T01:25:12.727Z,0.00
2018-10-15T01:26:12.877Z,0.00
2018-10-15T01:27:13.025Z,0.00
2018-10-15T01:28:13.175Z,0.00
2018-10-15T01:29:13.327Z,0.00
2018-10-15T01:30:13.471Z,0.00
2018-10-15T01:31:13.629Z,0.00
2018-10-15T01:32:13.771Z,0.00
2018-10-15T01:33:13.925Z,0.00
2018-10-15T01:34:14.073Z,0.00
2018-10-15T01:35:14.221Z,0.00
2018-10-15T01:36:14.369Z,0.00
2018-10-15T01:37:14.518Z,0.00
2018-10-15T01:38:14.669Z,0.00
2018-10-15T01:39:14.817Z,0.00
2018-10-15T01:40:14.967Z,0.00
2018-10-15T01:41:15.115Z,0.00
2018-10-15T01:42:15.264Z,0.00
2018-10-15T01:43:15.413Z,0.00
2018-10-15T01:44:15.563Z,0.00
2018-10-15T01:45:15.709Z,0.00
2018-10-15T01:46:15.860Z,0.00
2018-10-15T01:47:16.009Z,0.00
2018-10-15T01:48:16.165Z,0.00
2018-10-15T01:49:16.307Z,0.00
2018-10-15T01:50:16.455Z,0.00
2018-10-15T01:51:16.607Z,0.00
2018-10-15T01:52:16.755Z,0.00
2018-10-15T01:53:16.905Z,0.00
2018-10-15T01:54:17.056Z,0.00
2018-10-15T01:55:17.204Z,0.00
2018-10-15T01:56:17.353Z,0.00
2018-10-15T01:57:17.504Z,0.00
2018-10-15T01:58:17.657Z,0.00
2018-10-15T01:59:17.800Z,0.00
2018-10-15T02:00:17.949Z,0.00
2018-10-15T02:01:18.098Z,0.00
2018-10-15T02:02:18.250Z,0.00
2018-10-15T02:03:18.403Z,0.00
2018-10-15T02:04:18.554Z,0.00
2018-10-15T02:05:18.703Z,0.00
2018-10-15T02:06:18.848Z,0.00
2018-10-15T02:07:18.999Z,0.00
2018-10-15T02:08:19.149Z,0.00
2018-10-15T02:09:19.298Z,0.00
2018-10-15T02:10:19.445Z,0.00
2018-10-15T02:11:19.599Z,0.00
2018-10-15T02:12:19.747Z,0.00
2018-10-15T02:13:19.896Z,0.00
2018-10-15T02:14:20.046Z,0.00
2018-10-15T02:15:20.195Z,0.00
2018-10-15T02:16:20.340Z,0.00
2018-10-15T02:17:20.496Z,0.00
2018-10-15T02:18:20.646Z,0.00
2018-10-15T02:19:20.794Z,0.00
2018-10-15T02:20:20.943Z,0.00
2018-10-15T02:21:21.092Z,0.00
2018-10-15T02:22:21.242Z,0.00
2018-10-15T02:23:21.390Z,0.00
2018-10-15T02:24:21.537Z,0.00
2018-10-15T02:25:21.687Z,0.00
2018-10-15T02:26:21.835Z,0.00
2018-10-15T02:27:21.985Z,0.00
2018-10-15T02:28:22.138Z,0.00
2018-10-15T02:29:22.282Z,0.00
2018-10-15T02:30:22.432Z,0.00
2018-10-15T02:31:22.583Z,0.00
2018-10-15T02:32:22.738Z,0.00
2018-10-15T02:33:22.885Z,0.00
2018-10-15T02:34:23.032Z,0.00
2018-10-15T02:35:23.181Z,0.00
2018-10-15T02:36:23.332Z,0.00
2018-10-15T02:37:23.481Z,0.00
2018-10-15T02:38:23.627Z,0.00
2018-10-15T02:39:23.777Z,0.00
2018-10-15T02:40:23.929Z,0.00
2018-10-15T02:41:24.076Z,0.00
2018-10-15T02:42:24.224Z,0.00
2018-10-15T02:43:24.372Z,0.00
2018-10-15T02:44:24.523Z,0.00
2018-10-15T02:45:24.671Z,0.00
2018-10-15T02:46:24.824Z,0.00
2018-10-15T02:47:24.970Z,0.00
2018-10-15T02:48:25.121Z,0.00
2018-10-15T02:49:25.272Z,0.00
2018-10-15T02:50:25.419Z,0.00
2018-10-15T02:51:25.568Z,0.00
2018-10-15T02:52:25.716Z,0.00
2018-10-15T02:53:25.868Z,0.00
2018-10-15T02:54:26.011Z,0.00
2018-10-15T02:55:26.163Z,0.00
2018-10-15T02:56:26.315Z,0.00
2018-10-15T02:57:26.457Z,0.00
2018-10-15T02:58:26.614Z,0.00
2018-10-15T02:59:26.757Z,0.00
2018-10-15T03:00:26.905Z,0.00
2018-10-15T03:01:27.064Z,0.00
2018-10-15T03:02:27.206Z,0.00
2018-10-15T03:03:27.354Z,0.00
2018-10-15T03:04:27.505Z,0.00
2018-10-15T03:05:27.653Z,0.00
2018-10-15T03:06:27.800Z,0.00
2018-10-15T03:07:27.950Z,0.00
2018-10-15T03:08:28.101Z,0.00
2018-10-15T03:09:28.248Z,0.00
2018-10-15T03:10:28.394Z,0.00
2018-10-15T03:11:28.543Z,0.00
2018-10-15T03:12:28.694Z,0.00
2018-10-15T03:13:28.843Z,0.00
2018-10-15T03:14:28.988Z,0.00
2018-10-15T03:15:29.140Z,0.00
2018-10-15T03:16:29.290Z,0.00
2018-10-15T03:17:29.434Z,0.00
2018-10-15T03:18:29.589Z,0.00
2018-10-15T03:19:29.736Z,0.00
2018-10-15T03:20:29.882Z,0.00
2018-10-15T03:21:30.032Z,0.00
2018-10-15T03:22:30.184Z,0.00
2018-10-15T03:23:30.335Z,0.00
2018-10-15T03:24:30.481Z,0.00
2018-10-15T03:25:30.628Z,0.00
2018-10-15T03:26:30.775Z,0.00
2018-10-15T03:27:30.924Z,0.00
2018-10-15T03:28:31.075Z,0.00
2018-10-15T03:29:31.223Z,0.00
2018-10-15T03:30:31.371Z,0.00
2018-10-15T03:31:31.523Z,0.00
2018-10-15T03:32:31.667Z,0.00
2018-10-15T03:33:31.817Z,0.00
2018-10-15T03:34:31.965Z,0.00
2018-10-15T03:35:32.107Z,0.00
2018-10-15T03:36:32.267Z,0.00
2018-10-15T03:37:32.412Z,0.00
2018-10-15T03:38:32.560Z,0.00
2018-10-15T03:39:32.710Z,0.00
2018-10-15T03:40:32.858Z,0.00
2018-10-15T03:41:33.007Z,0.00
2018-10-15T03:42:33.159Z,0.00
2018-10-15T03:43:33.309Z,0.00
2018-10-15T03:44:33.458Z,0.00
2018-10-15T03:45:33.604Z,0.00
2018-10-15T03:46:33.757Z,0.00
2018-10-15T03:47:33.906Z,0.00
2018-10-15T03:48:34.057Z,0.00
2018-10-15T03:49:34.206Z,0.00
2018-10-15T03:50:34.354Z,0.00
2018-10-15T03:51:34.501Z,0.00
2018-10-15T03:52:34.651Z,0.00
2018-10-15T03:53:34.803Z,0.00
2018-10-15T03:54:34.953Z,0.00
2018-10-15T03:55:35.100Z,0.00
2018-10-15T03:56:35.250Z,0.00
2018-10-15T03:57:35.397Z,0.00
2018-10-15T03:58:35.594Z,0.00
2018-10-15T03:59:35.697Z,0.00
2018-10-15T04:00:35.850Z,0.00
2018-10-15T04:01:35.992Z,0.00
2018-10-15T04:02:36.188Z,0.00
2018-10-15T04:03:36.291Z,0.00
2018-10-15T04:04:36.437Z,0.00
2018-10-15T04:05:36.586Z,0.00
2018-10-15T04:06:36.735Z,0.00
2018-10-15T04:07:36.885Z,0.00
2018-10-15T04:08:37.118Z,0.00
2018-10-15T04:09:37.179Z,0.00
2018-10-15T04:10:37.326Z,0.00
2018-10-15T04:11:37.481Z,0.00
2018-10-15T04:12:37.627Z,0.00
2018-10-15T04:13:37.843Z,0.00
2018-10-15T04:14:37.985Z,0.00
2018-10-15T04:15:38.074Z,0.00
2018-10-15T04:16:38.227Z,0.00
2018-10-15T04:17:38.379Z,0.00
2018-10-15T04:18:38.517Z,0.00
2018-10-15T04:19:38.690Z,0.00
2018-10-15T04:20:38.831Z,0.00
2018-10-15T04:21:38.980Z,0.00
2018-10-15T04:22:39.129Z,0.00
2018-10-15T04:23:39.280Z,0.00
2018-10-15T04:24:39.430Z,0.00
2018-10-15T04:25:39.574Z,0.00
2018-10-15T04:26:39.726Z,0.00
2018-10-15T04:27:39.871Z,0.00
2018-10-15T04:28:40.021Z,0.00
2018-10-15T04:29:40.173Z,0.00
2018-10-15T04:30:40.318Z,0.00
2018-10-15T04:31:40.468Z,0.00
2018-10-15T04:32:40.615Z,0.00
2018-10-15T04:33:40.765Z,0.00
2018-10-15T04:34:40.922Z,0.00
2018-10-15T04:35:41.063Z,0.00
2018-10-15T04:36:41.212Z,0.00
2018-10-15T04:37:41.426Z,0.00
2018-10-15T04:38:41.508Z,0.00
2018-10-15T04:39:41.662Z,0.00
2018-10-15T04:40:41.807Z,0.00
2018-10-15T04:41:41.965Z,0.00
2018-10-15T04:42:42.104Z,0.00
2018-10-15T04:43:42.254Z,0.00
2018-10-15T04:44:42.401Z,0.00
2018-10-15T04:45:42.551Z,0.00
2018-10-15T04:46:42.703Z,0.00
2018-10-15T04:47:42.857Z,0.00
2018-10-15T04:48:43.058Z,0.00
2018-10-15T04:49:43.147Z,0.00
2018-10-15T04:50:43.297Z,0.00
2018-10-15T04:51:43.441Z,0.00
2018-10-15T04:52:43.595Z,0.00
2018-10-15T04:53:43.738Z,0.00
2018-10-15T04:54:43.913Z,0.00
2018-10-15T04:55:44.031Z,0.00
2018-10-15T04:56:44.188Z,0.00
2018-10-15T04:57:44.331Z,0.00
2018-10-15T04:58:44.478Z,0.00
2018-10-15T04:59:44.615Z,0.00
2018-10-15T05:00:44.763Z,0.00
2018-10-15T05:01:44.968Z,0.00
2018-10-15T05:02:45.067Z,0.00
2018-10-15T05:03:45.216Z,0.00
2018-10-15T05:04:45.361Z,0.00
2018-10-15T05:05:45.510Z,0.00
2018-10-15T05:06:45.660Z,0.00
2018-10-15T05:07:45.814Z,0.00
2018-10-15T05:08:45.959Z,0.00
2018-10-15T05:09:46.109Z,0.00
2018-10-15T05:10:46.255Z,0.00
2018-10-15T05:11:46.393Z,0.00
2018-10-15T05:12:46.544Z,0.00
2018-10-15T05:13:46.708Z,0.00
2018-10-15T05:14:46.852Z,0.00
2018-10-15T05:15:47.003Z,0.00
2018-10-15T05:16:47.152Z,0.00
2018-10-15T05:17:47.303Z,0.00
2018-10-15T05:18:47.452Z,0.00
2018-10-15T05:19:47.605Z,0.00
2018-10-15T05:20:47.784Z,0.00
2018-10-15T05:21:47.900Z,0.00
2018-10-15T05:22:48.048Z,0.00
2018-10-15T05:23:48.196Z,0.00
2018-10-15T05:24:48.347Z,0.00
2018-10-15T05:25:48.494Z,0.00
2018-10-15T05:26:48.654Z,0.00
2018-10-15T05:27:48.795Z,0.00
2018-10-15T05:28:48.937Z,0.00
2018-10-15T05:29:49.086Z,0.00
2018-10-15T05:30:49.278Z,0.00
2018-10-15T05:31:49.382Z,0.00
2018-10-15T05:32:49.530Z,0.00
2018-10-15T05:33:49.678Z,0.00
2018-10-15T05:34:49.826Z,0.00
2018-10-15T05:35:49.975Z,0.00
2018-10-15T05:36:50.189Z,5.63
2018-10-15T05:37:50.272Z,5.63
2018-10-15T05:38:50.422Z,5.63
2018-10-15T05:39:50.579Z,5.63
2018-10-15T05:40:50.731Z,5.63
2018-10-15T05:41:50.886Z,11.25
2018-10-15T05:42:51.031Z,11.25
2018-10-15T05:43:51.181Z,11.25
2018-10-15T05:44:51.327Z,11.25
2018-10-15T05:45:51.476Z,11.25
2018-10-15T05:46:51.634Z,16.88
2018-10-15T05:47:51.779Z,16.88
2018-10-15T05:48:51.926Z,16.88
2018-10-15T05:49:52.127Z,22.50
2018-10-15T05:50:52.226Z,22.50
2018-10-15T05:51:52.425Z,22.50
2018-10-15T05:52:52.522Z,22.50
2018-10-15T05:53:52.671Z,28.13
2018-10-15T05:54:52.820Z,28.13
2018-10-15T05:55:52.972Z,28.13
2018-10-15T05:56:53.119Z,33.75
2018-10-15T05:57:53.267Z,33.75
2018-10-15T05:58:53.413Z,33.75
2018-10-15T05:59:53.562Z,39.38
2018-10-15T06:00:53.714Z,39.38
2018-10-15T06:01:53.858Z,39.38
2018-10-15T06:02:54.009Z,45.00
2018-10-15T06:03:54.158Z,45.00
2018-10-15T06:04:54.309Z,45.00
2018-10-15T06:05:54.455Z,50.63
2018-10-15T06:06:54.603Z,50.63
2018-10-15T06:07:54.757Z,56.25
2018-10-15T06:08:54.903Z,56.25
2018-10-15T06:09:55.053Z,61.88
2018-10-15T06:10:55.200Z,67.50
2018-10-15T06:11:55.349Z,67.50
2018-10-15T06:12:55.547Z,73.13
2018-10-15T06:13:55.647Z,73.13
2018-10-15T06:14:55.797Z,73.13
2018-10-15T06:15:55.949Z,78.75
2018-10-15T06:16:56.094Z,78.75
2018-10-15T06:17:56.244Z,84.38
2018-10-15T06:18:56.389Z,84.38
2018-10-15T06:19:56.540Z,90.00
2018-10-15T06:20:56.690Z,90.00
2018-10-15T06:21:56.835Z,90.00
2018-10-15T06:22:56.984Z,95.63
2018-10-15T06:23:57.134Z,95.63
2018-10-15T06:24:57.282Z,101.25
2018-10-15T06:25:57.430Z,101.25
2018-10-15T06:26:57.579Z,101.25
2018-10-15T06:27:57.729Z,106.88
2018-10-15T06:28:57.875Z,106.88
2018-10-15T06:29:58.023Z,112.50
2018-10-15T06:30:58.169Z,112.50
2018-10-15T06:31:58.333Z,118.13
2018-10-15T06:32:58.481Z,118.13
2018-10-15T06:33:58.635Z,118.13
2018-10-15T06:34:58.792Z,123.75
2018-10-15T06:35:58.938Z,123.75
2018-10-15T06:36:59.095Z,123.75
2018-10-15T06:37:59.278Z,129.38
2018-10-15T06:38:59.428Z,129.38
2018-10-15T06:39:59.533Z,135.00
2018-10-15T06:40:59.685Z,135.00
2018-10-15T06:42:00.035Z,135.00
2018-10-15T06:42:59.981Z,135.00
2018-10-15T06:44:00.174Z,140.63
2018-10-15T06:45:00.318Z,140.63
2018-10-15T06:46:00.424Z,140.63
2018-10-15T06:47:00.735Z,140.63
2018-10-15T06:48:00.657Z,146.25
2018-10-15T06:49:00.813Z,146.25
2018-10-15T06:50:00.954Z,151.88
2018-10-15T06:51:01.152Z,151.88
2018-10-15T06:52:01.262Z,151.88
2018-10-15T06:53:01.458Z,157.50
2018-10-15T06:54:01.555Z,157.50
2018-10-15T06:55:01.805Z,163.13
2018-10-15T06:56:01.849Z,163.13
2018-10-15T06:57:02.053Z,163.13
2018-10-15T06:58:02.146Z,168.75
2018-10-15T06:59:02.299Z,168.75
2018-10-15T07:00:02.510Z,168.75
2018-10-15T07:01:02.642Z,174.38
2018-10-15T07:02:02.767Z,174.38
2018-10-15T07:03:02.948Z,174.38
2018-10-15T07:04:03.046Z,174.38
2018-10-15T07:05:03.193Z,180.00
2018-10-15T07:06:03.369Z,180.00
2018-10-15T07:07:03.542Z,180.00
2018-10-15T07:08:03.640Z,180.00
2018-10-15T07:09:03.813Z,185.63
2018-10-15T07:10:03.982Z,185.63
2018-10-15T07:11:04.091Z,185.63
2018-10-15T07:12:04.241Z,185.63
2018-10-15T07:13:04.429Z,191.25
2018-10-15T07:14:04.572Z,191.25
2018-10-15T07:15:04.687Z,191.25
2018-10-15T07:16:04.839Z,191.25
2018-10-15T07:17:04.987Z,191.25
2018-10-15T07:18:05.141Z,196.88
2018-10-15T07:19:05.329Z,196.88
2018-10-15T07:20:05.437Z,196.88
2018-10-15T07:21:05.583Z,196.88
2018-10-15T07:22:05.797Z,202.50
2018-10-15T07:23:05.881Z,202.50
2018-10-15T07:24:06.089Z,202.50
2018-10-15T07:25:06.177Z,202.50
2018-10-15T07:26:06.345Z,202.50
2018-10-15T07:27:06.476Z,202.50
2018-10-15T07:28:06.736Z,202.50
2018-10-15T07:29:06.773Z,208.13
2018-10-15T07:30:06.933Z,208.13
2018-10-15T07:31:07.072Z,208.13
2018-10-15T07:32:07.267Z,208.13
2018-10-15T07:33:07.373Z,208.13
2018-10-15T07:34:07.552Z,213.75
2018-10-15T07:35:07.673Z,213.75
2018-10-15T07:36:07.834Z,213.75
2018-10-15T07:37:07.979Z,213.75
2018-10-15T07:38:08.166Z,213.75
2018-10-15T07:39:08.269Z,219.38
2018-10-15T07:40:08.479Z,219.38
2018-10-15T07:41:08.572Z,219.38
2018-10-15T07:42:08.754Z,219.38
2018-10-15T07:43:08.865Z,219.38
2018-10-15T07:44:09.216Z,225.00
2018-10-15T07:45:09.165Z,225.00
2018-10-15T07:46:09.344Z,225.00
2018-10-15T07:47:09.464Z,225.00
2018-10-15T07:48:09.716Z,230.63
2018-10-15T07:49:09.763Z,230.63
2018-10-15T07:50:09.961Z,230.63
2018-10-15T07:51:10.065Z,230.63
2018-10-15T07:52:10.256Z,230.63
2018-10-15T07:53:10.385Z,236.25
2018-10-15T07:54:10.623Z,236.25
2018-10-15T07:55:10.661Z,236.25
2018-10-15T07:56:10.845Z,236.25
2018-10-15T07:57:10.967Z,236.25
2018-10-15T07:58:11.151Z,241.88
2018-10-15T07:59:11.296Z,241.88
2018-10-15T08:00:11.423Z,241.88
2018-10-15T08:01:11.564Z,241.88
2018-10-15T08:02:11.715Z,241.88
2018-10-15T08:03:11.859Z,247.50
2018-10-15T08:04:12.072Z,247.50
2018-10-15T08:05:12.168Z,247.50
2018-10-15T08:06:12.308Z,247.50
2018-10-15T08:07:12.453Z,247.50
2018-10-15T08:08:12.678Z,253.13
2018-10-15T08:09:12.753Z,253.13
2018-10-15T08:10:12.936Z,253.13
2018-10-15T08:11:13.090Z,253.13
2018-10-15T08:12:13.198Z,253.13
2018-10-15T08:13:13.351Z,258.75
2018-10-15T08:14:13.528Z,258.75
2018-10-15T08:15:13.730Z,258.75
2018-10-15T08:16:13.825Z,258.75
2018-10-15T08:17:13.955Z,258.75
2018-10-15T08:18:14.102Z,264.38
2018-10-15T08:19:14.252Z,264.38
2018-10-15T08:20:14.473Z,264.38
2018-10-15T08:21:14.590Z,264.38
2018-10-15T08:22:14.781Z,264.38
2018-10-15T08:23:14.862Z,264.38
2018-10-15T08:24:15.017Z,270.00
2018-10-15T08:25:15.162Z,270.00
2018-10-15T08:26:15.402Z,270.00
2018-10-15T08:27:15.524Z,270.00
2018-10-15T08:28:15.672Z,270.00
2018-10-15T08:29:15.767Z,270.00
2018-10-15T08:30:15.919Z,275.63
2018-10-15T08:31:16.071Z,275.63
2018-10-15T08:32:16.222Z,275.63
2018-10-15T08:33:16.372Z,275.63
2018-10-15T08:34:16.571Z,275.63
2018-10-15T08:35:16.778Z,281.25
2018-10-15T08:36:16.859Z,281.25
2018-10-15T08:37:17.008Z,281.25
2018-10-15T08:38:17.160Z,281.25
2018-10-15T08:39:17.313Z,281.25
2018-10-15T08:40:17.463Z,281.25
2018-10-15T08:41:17.691Z,286.88
2018-10-15T08:42:17.806Z,286.88
2018-10-15T08:43:17.925Z,286.88
2018-10-15T08:44:18.076Z,286.88
2018-10-15T08:45:18.228Z,286.88
2018-10-15T08:46:18.379Z,292.50
2018-10-15T08:47:18.528Z,292.50
2018-10-15T08:48:18.682Z,292.50
2018-10-15T08:49:18.837Z,292.50
2018-10-15T08:50:19.025Z,292.50
2018-10-15T08:51:19.134Z,298.13
2018-10-15T08:52:19.329Z,298.13
2018-10-15T08:53:19.438Z,298.13
2018-10-15T08:54:19.619Z,298.13
2018-10-15T08:55:19.741Z,298.13
2018-10-15T08:56:19.892Z,303.75
2018-10-15T08:57:20.044Z,303.75
2018-10-15T08:58:20.198Z,303.75
2018-10-15T08:59:20.349Z,303.75
2018-10-15T09:00:20.503Z,303.75
2018-10-15T09:01:20.653Z,303.75
2018-10-15T09:02:20.804Z,303.75
2018-10-15T09:03:20.956Z,309.38
2018-10-15T09:04:21.108Z,309.38
2018-10-15T09:05:21.260Z,309.38
2018-10-15T09:06:21.461Z,309.38
2018-10-15T09:07:21.608Z,309.38
2018-10-15T09:08:21.748Z,309.38
2018-10-15T09:09:22.051Z,309.38
2018-10-15T09:10:22.018Z,309.38
2018-10-15T09:11:22.172Z,315.00
2018-10-15T09:12:22.339Z,315.00
2018-10-15T09:13:22.599Z,315.00
2018-10-15T09:14:22.628Z,315.00
2018-10-15T09:15:22.785Z,315.00
2018-10-15T09:16:22.929Z,315.00
2018-10-15T09:17:23.084Z,315.00
2018-10-15T09:18:23.236Z,315.00
2018-10-15T09:19:23.388Z,315.00
2018-10-15T09:20:23.540Z,320.63
2018-10-15T09:21:23.725Z,320.63
2018-10-15T09:22:23.845Z,320.63
2018-10-15T09:23:23.994Z,320.63
2018-10-15T09:24:24.149Z,320.63
2018-10-15T09:25:24.302Z,320.63
2018-10-15T09:26:24.454Z,320.63
2018-10-15T09:27:24.795Z,320.63
2018-10-15T09:28:24.756Z,320.63
2018-10-15T09:29:24.909Z,326.25
2018-10-15T09:30:25.062Z,326.25
2018-10-15T09:31:25.257Z,326.25
2018-10-15T09:32:25.365Z,326.25
2018-10-15T09:33:25.612Z,326.25
2018-10-15T09:34:25.672Z,326.25
2018-10-15T09:35:25.881Z,326.25
2018-10-15T09:36:25.976Z,326.25
2018-10-15T09:37:26.130Z,331.88
2018-10-15T09:38:26.362Z,331.88
2018-10-15T09:39:26.438Z,331.88
2018-10-15T09:40:26.588Z,331.88
2018-10-15T09:41:26.785Z,331.88
2018-10-15T09:42:26.896Z,331.88
2018-10-15T09:43:27.048Z,331.88
2018-10-15T09:44:27.200Z,331.88
2018-10-15T09:45:27.354Z,337.50
2018-10-15T09:46:27.506Z,337.50
2018-10-15T09:47:27.660Z,337.50
2018-10-15T09:48:27.810Z,337.50
2018-10-15T09:49:27.964Z,337.50
2018-10-15T09:50:28.165Z,337.50
2018-10-15T09:51:28.270Z,337.50
2018-10-15T09:52:28.429Z,337.50
2018-10-15T09:53:28.604Z,337.50
2018-10-15T09:54:28.728Z,337.50
2018-10-15T09:55:28.886Z,343.13
2018-10-15T09:56:29.037Z,343.13
2018-10-15T09:57:29.191Z,343.13
2018-10-15T09:58:29.343Z,343.13
2018-10-15T09:59:29.494Z,343.13
2018-10-15T10:00:29.652Z,343.13
2018-10-15T10:01:29.806Z,343.13
2018-10-15T10:02:29.960Z,343.13
2018-10-15T10:03:30.110Z,343.13
2018-10-15T10:04:30.267Z,343.13
2018-10-15T10:05:30.420Z,343.13
2018-10-15T10:06:30.573Z,343.13
2018-10-15T10:07:30.785Z,348.75
2018-10-15T10:08:30.883Z,348.75
2018-10-15T10:09:31.033Z,348.75
2018-10-15T10:10:31.189Z,348.75
2018-10-15T10:11:31.343Z,348.75
2018-10-15T10:12:31.498Z,348.75
2018-10-15T10:13:31.652Z,348.75
2018-10-15T10:14:31.869Z,348.75
2018-10-15T10:15:31.960Z,348.75
2018-10-15T10:16:32.114Z,348.75
2018-10-15T10:17:32.411Z,348.75
2018-10-15T10:18:32.477Z,348.75
2018-10-15T10:19:32.578Z,348.75
2018-10-15T10:20:32.735Z,354.38
2018-10-15T10:21:32.888Z,354.38
2018-10-15T10:22:33.042Z,354.38
2018-10-15T10:23:33.198Z,354.38
2018-10-15T10:24:33.354Z,354.38
2018-10-15T10:25:33.508Z,354.38
2018-10-15T10:26:33.667Z,354.38
2018-10-15T10:27:33.818Z,354.38
2018-10-15T10:28:34.031Z,354.38
2018-10-15T10:29:34.128Z,354.38
2018-10-15T10:30:34.283Z,354.38
2018-10-15T10:31:34.438Z,354.38
2018-10-15T10:32:34.593Z,354.38
2018-10-15T10:33:34.769Z,354.38
2018-10-15T10:34:34.908Z,354.38
2018-10-15T10:35:35.129Z,354.38
2018-10-15T10:36:35.216Z,354.38
2018-10-15T10:37:35.371Z,354.38
2018-10-15T10:38:35.528Z,354.38
2018-10-15T10:39:35.685Z,354.38
2018-10-15T10:40:35.837Z,354.38
2018-10-15T10:41:36.031Z,354.38
2018-10-15T10:42:36.151Z,354.38
2018-10-15T10:43:36.305Z,354.38
2018-10-15T10:44:36.462Z,360.00
2018-10-15T10:45:36.641Z,360.00
2018-10-15T10:46:36.775Z,360.00
2018-10-15T10:47:36.929Z,360.00
2018-10-15T10:48:37.089Z,360.00
2018-10-15T10:49:37.241Z,360.00
2018-10-15T10:50:37.398Z,360.00
2018-10-15T10:51:37.555Z,360.00
2018-10-15T10:52:37.710Z,360.00
2018-10-15T10:53:37.865Z,360.00
2018-10-15T10:54:38.019Z,360.00
2018-10-15T10:55:38.176Z,360.00
2018-10-15T10:56:38.333Z,360.00
2018-10-15T10:57:38.489Z,360.00
2018-10-15T10:58:38.723Z,360.00
2018-10-15T10:59:38.835Z,360.00
2018-10-15T11:00:38.958Z,360.00
2018-10-15T11:01:39.113Z,360.00
2018-10-15T11:02:39.298Z,360.00
2018-10-15T11:03:39.427Z,360.00
2018-10-15T11:04:39.583Z,360.00
2018-10-15T11:05:39.808Z,360.00
2018-10-15T11:06:39.896Z,360.00
2018-10-15T11:07:40.054Z,360.00
2018-10-15T11:08:40.272Z,360.00
2018-10-15T11:09:40.366Z,360.00
2018-10-15T11:10:40.522Z,360.00
2018-10-15T11:11:40.677Z,360.00
2018-10-15T11:12:40.836Z,360.00
2018-10-15T11:13:40.991Z,360.00
2018-10-15T11:14:41.145Z,360.00
2018-10-15T11:15:41.300Z,360.00
2018-10-15T11:16:41.457Z,360.00
2018-10-15T11:17:41.615Z,360.00
2018-10-15T11:18:41.896Z,360.00
2018-10-15T11:19:41.929Z,360.00
2018-10-15T11:20:42.085Z,360.00
2018-10-15T11:21:42.241Z,360.00
2018-10-15T11:22:42.396Z,354.38
2018-10-15T11:23:42.553Z,354.38
2018-10-15T11:24:42.711Z,354.38
2018-10-15T11:25:42.867Z,354.38
2018-10-15T11:26:43.024Z,354.38
2018-10-15T11:27:43.180Z,354.38
2018-10-15T11:28:43.339Z,354.38
2018-10-15T11:29:43.506Z,354.38
2018-10-15T11:30:43.654Z,354.38
2018-10-15T11:31:43.811Z,354.38
2018-10-15T11:32:43.968Z,354.38
2018-10-15T11:33:44.126Z,354.38
2018-10-15T11:34:44.413Z,354.38
2018-10-15T11:35:44.437Z,354.38
2018-10-15T11:36:44.598Z,354.38
2018-10-15T11:37:44.755Z,354.38
2018-10-15T11:38:44.911Z,354.38
2018-10-15T11:39:45.066Z,354.38
2018-10-15T11:40:45.222Z,354.38
2018-10-15T11:41:45.378Z,354.38
2018-10-15T11:42:45.537Z,348.75
2018-10-15T11:43:45.740Z,348.75
2018-10-15T11:44:45.855Z,348.75
2018-10-15T11:45:46.012Z,348.75
2018-10-15T11:46:46.203Z,348.75
2018-10-15T11:47:46.326Z,348.75
2018-10-15T11:48:46.484Z,348.75
2018-10-15T11:49:46.688Z,348.75
2018-10-15T11:50:46.798Z,348.75
2018-10-15T11:51:46.956Z,348.75
2018-10-15T11:52:47.116Z,348.75
2018-10-15T11:53:47.325Z,343.13
2018-10-15T11:54:47.432Z,343.13
2018-10-15T11:55:47.590Z,343.13
2018-10-15T11:56:47.747Z,343.13
2018-10-15T11:57:47.903Z,343.13
2018-10-15T11:58:48.153Z,343.13
2018-10-15T11:59:48.223Z,343.13
2018-10-15T12:00:48.377Z,343.13
2018-10-15T12:01:48.538Z,343.13
2018-10-15T12:02:48.693Z,343.13
2018-10-15T12:03:48.851Z,343.13
2018-10-15T12:04:49.010Z,343.13
2018-10-15T12:05:49.168Z,343.13
2018-10-15T12:06:49.331Z,337.50
2018-10-15T12:07:49.484Z,337.50
2018-10-15T12:08:49.644Z,337.50
2018-10-15T12:09:49.800Z,337.50
2018-10-15T12:10:49.978Z,337.50
2018-10-15T12:11:50.118Z,337.50
2018-10-15T12:12:50.276Z,337.50
2018-10-15T12:13:50.433Z,337.50
2018-10-15T12:14:50.590Z,337.50
2018-10-15T12:15:50.750Z,337.50
2018-10-15T12:16:50.990Z,337.50
2018-10-15T12:17:51.069Z,337.50
2018-10-15T12:18:51.229Z,331.88
2018-10-15T12:19:51.387Z,331.88
2018-10-15T12:20:51.546Z,331.88
2018-10-15T12:21:51.706Z,331.88
2018-10-15T12:22:51.864Z,331.88
2018-10-15T12:23:52.025Z,331.88
2018-10-15T12:24:52.182Z,331.88
2018-10-15T12:25:52.340Z,331.88
2018-10-15T12:26:52.500Z,331.88
2018-10-15T12:27:52.683Z,331.88
2018-10-15T12:28:52.817Z,326.25
2018-10-15T12:29:53.031Z,326.25
2018-10-15T12:30:53.135Z,326.25
2018-10-15T12:31:53.295Z,326.25
2018-10-15T12:32:53.454Z,326.25
2018-10-15T12:33:53.615Z,326.25
2018-10-15T12:34:53.776Z,326.25
2018-10-15T12:35:53.931Z,320.63
2018-10-15T12:36:54.090Z,320.63
2018-10-15T12:37:54.251Z,320.63
2018-10-15T12:38:54.411Z,320.63
2018-10-15T12:39:54.576Z,320.63
2018-10-15T12:40:54.730Z,315.00
2018-10-15T12:41:54.890Z,315.00
2018-10-15T12:42:55.051Z,315.00
2018-10-15T12:43:55.209Z,315.00
2018-10-15T12:44:55.367Z,315.00
2018-10-15T12:45:55.526Z,309.38
2018-10-15T12:46:55.689Z,309.38
2018-10-15T12:47:55.851Z,309.38
2018-10-15T12:48:56.008Z,309.38
2018-10-15T12:49:56.167Z,309.38
2018-10-15T12:50:56.328Z,303.75
2018-10-15T12:51:56.489Z,303.75
2018-10-15T12:52:56.648Z,303.75